Time;durP1;ratioP1;P1;durP2;ratioP2;P2;SDS_P1;SDS_P2;PMS_P1;PMS_P2;Temp;Humidity;BMP_temperature;BMP_pressure;BME280_temperature;BME280_humidity;BME280_pressure;Samples;Min_cycle;Max_cycle;Signal;HPM_P1;HPM_P2
2023/09/16 00:00:09;;;;;;;8.63;4.63;;;18.40;70.10;;;;;;5030147;28;20480;-78
2023/09/16 00:02:35;;;;;;;8.75;4.75;;;18.40;70.30;;;;;;5029201;28;20026;-78
2023/09/16 00:05:01;;;;;;;8.93;4.90;;;18.40;70.40;;;;;;5029557;28;20426;-78
2023/09/16 00:07:27;;;;;;;11.05;4.70;;;18.40;70.50;;;;;;5042835;28;20116;-78
2023/09/16 00:09:58;;;;;;;8.68;4.60;;;18.30;70.60;;;;;;5028455;28;20060;-78
2023/09/16 00:12:25;;;;;;;8.93;4.63;;;18.30;70.70;;;;;;5028744;28;20037;-78
2023/09/16 00:14:51;;;;;;;8.55;4.85;;;18.30;70.70;;;;;;5030406;28;20033;-78
2023/09/16 00:17:17;;;;;;;9.38;4.68;;;18.30;70.90;;;;;;5025272;28;20112;-78
2023/09/16 00:19:43;;;;;;;10.77;5.60;;;18.20;70.90;;;;;;5040782;28;20112;-78
2023/09/16 00:22:10;;;;;;;9.32;5.35;;;18.20;71.00;;;;;;5029614;28;20041;-78
2023/09/16 00:24:40;;;;;;;10.20;5.15;;;18.20;71.10;;;;;;5041994;28;20029;-78
2023/09/16 00:27:09;;;;;;;8.57;5.03;;;18.20;71.20;;;;;;5029333;28;20473;-79
2023/09/16 00:29:35;;;;;;;9.98;5.65;;;18.20;71.30;;;;;;5029398;28;20034;-78
2023/09/16 00:32:05;;;;;;;9.48;5.13;;;18.20;71.30;;;;;;5028272;28;20025;-79
2023/09/16 00:34:32;;;;;;;9.05;4.93;;;18.20;71.40;;;;;;5029969;28;20031;-78
2023/09/16 00:36:58;;;;;;;10.05;5.30;;;18.20;71.50;;;;;;5027917;28;20044;-78
2023/09/16 00:39:25;;;;;;;7.82;4.35;;;18.20;71.50;;;;;;5023608;28;20327;-78
2023/09/16 00:41:51;;;;;;;9.10;5.00;;;18.20;71.60;;;;;;5027380;28;20706;-78
2023/09/16 00:44:16;;;;;;;9.20;5.00;;;18.20;71.70;;;;;;5028694;28;20115;-78
2023/09/16 00:46:42;;;;;;;10.75;5.13;;;18.10;71.80;;;;;;5028499;28;20033;-78
2023/09/16 00:49:09;;;;;;;8.45;4.60;;;18.10;71.80;;;;;;5029303;28;20045;-79
2023/09/16 00:51:35;;;;;;;9.65;5.32;;;18.10;71.90;;;;;;5027835;28;20064;-78
2023/09/16 00:54:02;;;;;;;8.55;4.70;;;18.10;72.00;;;;;;5028109;28;20056;-79
2023/09/16 00:56:29;;;;;;;9.20;4.55;;;18.10;72.10;;;;;;5004594;28;20017;-78
2023/09/16 00:58:57;;;;;;;11.30;5.10;;;18.10;72.10;;;;;;5029282;28;20459;-78
2023/09/16 01:01:25;;;;;;;8.85;4.90;;;18.10;72.30;;;;;;5048725;28;20041;-78
2023/09/16 01:03:52;;;;;;;10.32;5.05;;;18.10;72.30;;;;;;5026864;28;20033;-78
2023/09/16 01:06:19;;;;;;;10.60;5.25;;;18.10;72.40;;;;;;5044232;28;20081;-79
2023/09/16 01:08:45;;;;;;;9.35;5.00;;;18.10;72.50;;;;;;5044431;28;20076;-79
2023/09/16 01:11:12;;;;;;;11.60;5.32;;;18.10;72.50;;;;;;5029716;28;20351;-79
2023/09/16 01:13:39;;;;;;;10.75;5.43;;;18.10;72.50;;;;;;5026816;28;20060;-78
2023/09/16 01:16:31;;;;;;;9.23;5.10;;;18.10;72.60;;;;;;5030073;28;20087;-79
2023/09/16 01:19:21;;;;;;;9.65;5.35;;;18.10;72.60;;;;;;5045853;28;20029;-78
2023/09/16 01:21:48;;;;;;;10.43;5.80;;;18.10;72.80;;;;;;5027968;28;20469;-78
2023/09/16 01:24:24;;;;;;;9.45;5.45;;;18.10;72.80;;;;;;5033125;28;20032;-78
2023/09/16 01:26:51;;;;;;;9.88;5.43;;;18.10;73.50;;;;;;5033320;28;20023;-78
2023/09/16 01:29:17;;;;;;;9.25;5.53;;;18.10;72.90;;;;;;5027476;28;20017;-78
2023/09/16 01:31:44;;;;;;;9.88;5.63;;;18.10;73.00;;;;;;5031814;28;20014;-78
2023/09/16 01:34:30;;;;;;;9.77;5.72;;;18.10;73.00;;;;;;5031030;28;20022;-78
2023/09/16 01:36:58;;;;;;;10.35;5.70;;;18.10;73.00;;;;;;5005442;28;20513;-78
2023/09/16 01:39:29;;;;;;;10.43;5.35;;;18.00;73.10;;;;;;5031952;28;20038;-78
2023/09/16 01:41:56;;;;;;;10.00;5.60;;;18.00;73.10;;;;;;5032005;28;20028;-78
2023/09/16 01:44:22;;;;;;;11.60;6.63;;;18.00;73.20;;;;;;5031758;28;20326;-78
2023/09/16 01:46:48;;;;;;;11.10;5.93;;;18.00;73.30;;;;;;5027683;28;20041;-78
2023/09/16 01:49:14;;;;;;;9.85;5.95;;;18.00;73.30;;;;;;5031055;28;20040;-78
2023/09/16 01:51:40;;;;;;;9.23;6.07;;;18.00;73.30;;;;;;5045593;28;20431;-78
2023/09/16 01:54:06;;;;;;;9.18;6.43;;;18.00;73.40;;;;;;5027408;28;20046;-77
2023/09/16 01:56:31;;;;;;;10.05;5.90;;;18.00;73.40;;;;;;5029830;28;20033;-78
2023/09/16 01:58:57;;;;;;;9.20;6.50;;;18.00;73.40;;;;;;5029364;28;20439;-79
2023/09/16 02:01:23;;;;;;;9.95;5.97;;;18.00;73.50;;;;;;5033090;28;20075;-79
2023/09/16 02:03:49;;;;;;;10.18;6.07;;;18.00;73.50;;;;;;5032047;28;20045;-78
2023/09/16 02:06:14;;;;;;;10.93;6.32;;;17.90;73.60;;;;;;5031105;28;20060;-78
2023/09/16 02:08:40;;;;;;;10.75;6.63;;;17.90;73.60;;;;;;5026247;28;20033;-78
2023/09/16 02:11:06;;;;;;;10.45;6.60;;;17.90;74.30;;;;;;5046067;28;20034;-78
2023/09/16 02:13:35;;;;;;;12.60;7.18;;;17.90;73.60;;;;;;5046898;28;20152;-78
2023/09/16 02:16:01;;;;;;;11.30;7.13;;;17.90;73.70;;;;;;5026719;28;21884;-78
2023/09/16 02:18:28;;;;;;;10.82;6.55;;;17.90;73.80;;;;;;5043224;28;20022;-78
2023/09/16 02:20:53;;;;;;;13.57;7.93;;;17.90;73.80;;;;;;5040391;28;20099;-78
2023/09/16 02:23:20;;;;;;;11.68;7.22;;;17.90;73.80;;;;;;5042639;28;20025;-79
2023/09/16 02:25:46;;;;;;;11.25;6.85;;;17.90;73.80;;;;;;5029543;28;20488;-78
2023/09/16 02:28:12;;;;;;;13.15;7.80;;;17.90;73.80;;;;;;5041932;28;20033;-79
2023/09/16 02:30:37;;;;;;;13.02;7.35;;;17.90;73.90;;;;;;5030660;28;20030;-78
2023/09/16 02:33:03;;;;;;;12.25;7.72;;;17.90;73.90;;;;;;5041391;28;20463;-79
2023/09/16 02:35:29;;;;;;;10.27;7.13;;;17.90;74.00;;;;;;5042628;28;20033;-78
2023/09/16 02:37:55;;;;;;;11.98;7.57;;;17.80;74.00;;;;;;5031197;28;20030;-78
2023/09/16 02:40:21;;;;;;;12.88;7.85;;;17.80;74.00;;;;;;5025354;28;20072;-78
2023/09/16 02:42:46;;;;;;;11.32;7.38;;;17.80;74.10;;;;;;5046854;28;20037;-78
2023/09/16 02:45:12;;;;;;;13.02;8.00;;;17.80;74.20;;;;;;5020927;28;20044;-78
2023/09/16 02:47:38;;;;;;;12.60;7.88;;;17.80;74.20;;;;;;5030357;28;20129;-78
2023/09/16 02:50:05;;;;;;;11.50;7.85;;;17.70;74.20;;;;;;5041625;28;20112;-78
2023/09/16 02:52:31;;;;;;;12.48;7.28;;;17.70;74.30;;;;;;5042689;28;20021;-78
2023/09/16 02:54:57;;;;;;;15.20;8.20;;;17.70;74.40;;;;;;5025518;28;20427;-78
2023/09/16 02:57:23;;;;;;;11.27;7.68;;;17.70;74.40;;;;;;5046405;28;20024;-79
2023/09/16 02:59:48;;;;;;;10.77;7.28;;;17.70;74.40;;;;;;5043727;28;20025;-78
2023/09/16 03:02:15;;;;;;;11.48;7.55;;;17.70;74.50;;;;;;5025238;28;20418;-79
2023/09/16 03:04:41;;;;;;;11.32;7.88;;;17.70;74.50;;;;;;5045065;28;20029;-79
2023/09/16 03:07:07;;;;;;;12.60;7.93;;;17.70;74.60;;;;;;5022934;28;20188;-78
2023/09/16 03:09:33;;;;;;;13.00;8.60;;;17.70;74.50;;;;;;5029851;28;20443;-78
2023/09/16 03:12:00;;;;;;;13.18;8.95;;;17.70;74.50;;;;;;5045936;28;20021;-78
2023/09/16 03:14:26;;;;;;;11.82;7.82;;;17.70;74.50;;;;;;5041983;28;20120;-78
2023/09/16 03:16:52;;;;;;;11.65;8.10;;;17.70;74.50;;;;;;5028750;28;20029;-78
2023/09/16 03:19:18;;;;;;;11.85;8.02;;;17.70;74.50;;;;;;5028348;28;20014;-78
2023/09/16 03:21:44;;;;;;;13.82;7.93;;;17.70;74.60;;;;;;5043762;28;20040;-78
2023/09/16 03:24:10;;;;;;;12.15;8.65;;;17.70;74.60;;;;;;5024926;28;20017;-78
2023/09/16 03:26:36;;;;;;;13.95;8.90;;;17.70;74.60;;;;;;5040990;28;20453;-78
2023/09/16 03:29:02;;;;;;;12.43;8.15;;;17.60;74.70;;;;;;5038561;28;20032;-78
2023/09/16 03:31:29;;;;;;;11.75;8.43;;;17.60;74.70;;;;;;5041122;28;20029;-78
2023/09/16 03:34:02;;;;;;;12.93;8.45;;;17.60;74.70;;;;;;5044359;28;20108;-78
2023/09/16 03:36:28;;;;;;;13.70;8.65;;;17.60;74.80;;;;;;5042148;28;20022;-78
2023/09/16 03:38:54;;;;;;;13.18;8.07;;;17.60;74.80;;;;;;5027331;28;20369;-78
2023/09/16 03:41:20;;;;;;;14.13;8.15;;;17.50;74.80;;;;;;5043507;28;20040;-78
2023/09/16 03:43:56;;;;;;;10.43;7.53;;;17.60;74.90;;;;;;5029517;28;20041;-78
2023/09/16 03:46:24;;;;;;;11.85;8.05;;;17.50;74.80;;;;;;5042661;28;20033;-78
2023/09/16 03:48:51;;;;;;;12.25;8.13;;;17.50;74.90;;;;;;5042537;28;20121;-78
2023/09/16 03:51:17;;;;;;;11.43;8.18;;;17.50;74.90;;;;;;5029349;28;20041;-78
2023/09/16 03:53:44;;;;;;;13.73;8.48;;;17.50;74.90;;;;;;5029570;28;20032;-78
2023/09/16 03:56:11;;;;;;;13.02;8.80;;;17.50;75.60;;;;;;5025922;28;20029;-78
2023/09/16 03:58:37;;;;;;;12.50;8.40;;;17.50;75.00;;;;;;5029266;28;20022;-78
2023/09/16 04:01:04;;;;;;;12.05;8.50;;;17.50;75.10;;;;;;5039967;28;20033;-77
2023/09/16 04:03:30;;;;;;;12.43;8.55;;;17.50;75.10;;;;;;5043682;28;20623;-78
2023/09/16 04:05:58;;;;;;;12.77;8.57;;;17.40;75.10;;;;;;5027846;28;20037;-78
2023/09/16 04:08:26;;;;;;;13.88;9.15;;;17.50;75.10;;;;;;5045274;28;20469;-78
2023/09/16 04:10:52;;;;;;;11.73;8.20;;;17.40;75.10;;;;;;5042860;28;20033;-78
2023/09/16 04:13:21;;;;;;;13.25;8.70;;;17.40;75.10;;;;;;5024903;28;20026;-78
2023/09/16 04:15:47;;;;;;;11.50;7.82;;;17.40;75.20;;;;;;5026477;28;20070;-78
2023/09/16 04:18:13;;;;;;;13.63;9.07;;;17.40;75.20;;;;;;5026306;28;20018;-78
2023/09/16 04:20:39;;;;;;;12.88;8.30;;;17.40;75.30;;;;;;5044325;28;20095;-78
2023/09/16 04:23:04;;;;;;;12.60;8.63;;;17.40;75.30;;;;;;5028977;28;20030;-78
2023/09/16 04:25:31;;;;;;;12.43;8.48;;;17.40;75.20;;;;;;5027935;28;20071;-78
2023/09/16 04:27:58;;;;;;;13.15;9.40;;;17.40;75.30;;;;;;5028270;28;20112;-78
2023/09/16 04:30:24;;;;;;;12.77;8.93;;;17.40;75.30;;;;;;5026525;28;20026;-78
2023/09/16 04:32:50;;;;;;;14.10;9.25;;;17.40;75.30;;;;;;5040297;28;20060;-78
2023/09/16 04:35:15;;;;;;;12.70;8.68;;;17.40;75.30;;;;;;5032055;28;20029;-78
2023/09/16 04:37:44;;;;;;;12.85;8.98;;;17.40;75.30;;;;;;5044964;28;20021;-78
2023/09/16 04:40:11;;;;;;;12.63;8.50;;;17.40;75.30;;;;;;5031704;28;20024;-78
2023/09/16 04:42:37;;;;;;;13.02;9.10;;;17.40;75.30;;;;;;5026480;28;20033;-78
2023/09/16 04:45:05;;;;;;;13.77;8.73;;;17.40;75.30;;;;;;5043401;28;20036;-78
2023/09/16 04:47:32;;;;;;;13.27;8.70;;;17.40;75.30;;;;;;5031197;28;20057;-78
2023/09/16 04:49:58;;;;;;;12.55;9.43;;;17.30;75.40;;;;;;5028990;28;20463;-78
2023/09/16 04:52:27;;;;;;;12.88;8.60;;;17.30;75.30;;;;;;5022302;28;20028;-79
2023/09/16 04:54:54;;;;;;;13.27;9.40;;;17.30;75.40;;;;;;5027458;28;20494;-79
2023/09/16 04:57:21;;;;;;;13.60;9.40;;;17.30;75.40;;;;;;5029573;28;20029;-79
2023/09/16 04:59:48;;;;;;;13.23;9.35;;;17.30;75.40;;;;;;5031239;28;20088;-77
2023/09/16 05:02:14;;;;;;;13.68;9.57;;;17.30;75.50;;;;;;5032063;28;20120;-78
2023/09/16 05:04:40;;;;;;;15.95;10.55;;;17.30;75.50;;;;;;5030720;28;20072;-79
2023/09/16 05:07:08;;;;;;;14.18;9.50;;;17.30;75.50;;;;;;5024616;28;20363;-78
2023/09/16 05:09:35;;;;;;;14.63;9.23;;;17.30;75.50;;;;;;5029591;28;20072;-79
2023/09/16 05:12:02;;;;;;;14.25;10.20;;;17.30;75.50;;;;;;5031078;28;20059;-79
2023/09/16 05:14:29;;;;;;;13.70;9.05;;;17.30;75.50;;;;;;5029611;28;20108;-78
2023/09/16 05:16:55;;;;;;;14.85;9.55;;;17.30;75.60;;;;;;5043783;28;20415;-79
2023/09/16 05:19:21;;;;;;;13.50;9.65;;;17.30;75.60;;;;;;5034602;28;20350;-80
2023/09/16 05:21:48;;;;;;;13.82;9.63;;;17.20;75.60;;;;;;5037109;28;20049;-79
2023/09/16 05:24:15;;;;;;;13.93;9.73;;;17.20;75.70;;;;;;5017556;28;20041;-78
2023/09/16 05:26:41;;;;;;;13.25;9.88;;;17.20;75.70;;;;;;5036162;28;20017;-79
2023/09/16 05:29:07;;;;;;;13.38;9.93;;;17.30;75.80;;;;;;5036022;28;20033;-79
2023/09/16 05:31:34;;;;;;;13.23;9.27;;;17.20;75.70;;;;;;5035504;28;20716;-79
2023/09/16 05:33:59;;;;;;;14.38;9.10;;;17.20;75.80;;;;;;5035862;28;20033;-79
2023/09/16 05:36:27;;;;;;;12.48;9.30;;;17.20;75.80;;;;;;5035534;28;20026;-79
2023/09/16 05:38:53;;;;;;;15.18;10.45;;;17.20;75.80;;;;;;5035768;28;20079;-79
2023/09/16 05:41:19;;;;;;;13.85;9.88;;;17.20;75.80;;;;;;5019289;28;20065;-79
2023/09/16 05:43:44;;;;;;;14.05;9.98;;;17.20;75.80;;;;;;5052583;28;20411;-79
2023/09/16 05:46:10;;;;;;;14.88;9.57;;;17.20;75.80;;;;;;5017876;28;20116;-79
2023/09/16 05:48:36;;;;;;;14.23;10.25;;;17.20;75.80;;;;;;5030501;28;20359;-79
2023/09/16 05:51:03;;;;;;;13.15;9.65;;;17.20;75.80;;;;;;5042254;28;20112;-79
2023/09/16 05:53:32;;;;;;;14.43;9.20;;;17.30;75.90;;;;;;5035526;28;20363;-79
2023/09/16 05:56:08;;;;;;;15.98;10.52;;;17.30;75.90;;;;;;5034591;28;20041;-79
2023/09/16 05:58:39;;;;;;;12.57;9.85;;;17.30;75.90;;;;;;5031680;28;20359;-79
2023/09/16 06:01:05;;;;;;;13.88;9.45;;;17.30;75.80;;;;;;5044764;28;20048;-79
2023/09/16 06:03:32;;;;;;;13.25;9.63;;;17.30;75.80;;;;;;5017744;28;20048;-79
2023/09/16 06:05:59;;;;;;;13.27;9.70;;;17.40;75.90;;;;;;5034323;28;20479;-79
2023/09/16 06:08:25;;;;;;;13.88;9.38;;;17.40;75.90;;;;;;5035264;28;20031;-79
2023/09/16 06:10:51;;;;;;;14.27;10.18;;;17.40;76.00;;;;;;5031054;28;20033;-79
2023/09/16 06:13:17;;;;;;;14.10;10.00;;;17.40;76.00;;;;;;5033449;28;20025;-79
2023/09/16 06:15:43;;;;;;;14.05;10.07;;;17.40;76.00;;;;;;5028977;28;20348;-79
2023/09/16 06:18:10;;;;;;;13.68;9.35;;;17.50;76.00;;;;;;5033929;28;20080;-78
2023/09/16 06:20:36;;;;;;;13.45;9.02;;;17.50;75.90;;;;;;5025941;28;20125;-76
2023/09/16 06:23:03;;;;;;;13.68;8.77;;;17.60;75.90;;;;;;5044159;28;20116;-79
2023/09/16 06:25:30;;;;;;;14.23;9.80;;;17.70;75.80;;;;;;5047314;28;20082;-78
2023/09/16 06:27:59;;;;;;;13.80;9.70;;;17.70;75.60;;;;;;5031693;28;20113;-78
2023/09/16 06:30:25;;;;;;;14.85;9.65;;;17.80;75.60;;;;;;5030332;28;20017;-79
2023/09/16 06:32:57;;;;;;;14.75;9.55;;;17.80;75.50;;;;;;5033884;28;20025;-78
2023/09/16 06:35:23;;;;;;;14.27;9.63;;;17.80;75.50;;;;;;5018296;28;20025;-78
2023/09/16 06:37:50;;;;;;;14.43;10.27;;;17.80;75.40;;;;;;5035457;28;20029;-75
2023/09/16 06:40:19;;;;;;;13.13;9.02;;;17.90;75.40;;;;;;5034499;28;20187;-74
2023/09/16 06:42:45;;;;;;;13.50;8.95;;;17.90;75.40;;;;;;5034119;28;20120;-76
2023/09/16 06:45:12;;;;;;;12.68;8.95;;;18.00;75.40;;;;;;5033153;28;20172;-76
2023/09/16 06:47:38;;;;;;;12.82;9.35;;;18.00;75.40;;;;;;5032069;28;20473;-76
2023/09/16 06:50:06;;;;;;;12.32;8.82;;;18.10;75.40;;;;;;5034908;28;20116;-79
2023/09/16 06:52:31;;;;;;;13.50;8.85;;;18.10;75.30;;;;;;5034018;28;20017;-77
2023/09/16 06:54:57;;;;;;;13.05;8.68;;;18.20;75.30;;;;;;5033198;28;20386;-78
2023/09/16 06:57:23;;;;;;;12.10;8.48;;;18.20;75.30;;;;;;5014288;28;20103;-75
2023/09/16 06:59:49;;;;;;;13.73;9.18;;;18.30;75.20;;;;;;5039481;28;20120;-74
2023/09/16 07:02:16;;;;;;;16.00;9.23;;;18.40;75.00;;;;;;5026934;28;20026;-77
2023/09/16 07:04:42;;;;;;;11.88;8.13;;;18.50;74.80;;;;;;5029557;28;20406;-76
2023/09/16 07:07:12;;;;;;;12.35;8.98;;;18.60;74.70;;;;;;5045452;28;20041;-75
2023/09/16 07:09:38;;;;;;;13.93;9.25;;;18.60;74.50;;;;;;5025455;28;20052;-76
2023/09/16 07:12:07;;;;;;;12.52;8.45;;;18.70;74.50;;;;;;5029123;28;20044;-76
2023/09/16 07:14:39;;;;;;;12.05;7.93;;;18.80;74.30;;;;;;5028976;28;20454;-75
2023/09/16 07:17:06;;;;;;;12.40;9.25;;;19.00;74.30;;;;;;5029039;28;20022;-74
2023/09/16 07:19:33;;;;;;;13.65;8.55;;;19.00;74.00;;;;;;5023900;28;20112;-74
2023/09/16 07:22:00;;;;;;;11.73;8.55;;;19.10;73.80;;;;;;5010987;28;20025;-71
2023/09/16 07:24:25;;;;;;;12.70;8.07;;;19.20;73.60;;;;;;5028512;28;20393;-75
2023/09/16 07:26:51;;;;;;;12.63;8.13;;;19.30;73.40;;;;;;5045154;28;20029;-76
2023/09/16 07:29:20;;;;;;;10.80;7.65;;;19.30;73.20;;;;;;5030166;28;20025;-75
2023/09/16 07:31:46;;;;;;;11.45;7.80;;;19.40;73.10;;;;;;5030236;28;20070;-76
2023/09/16 07:34:12;;;;;;;11.95;7.55;;;19.50;73.00;;;;;;5033977;28;20056;-76
2023/09/16 07:36:37;;;;;;;11.93;7.53;;;19.60;72.90;;;;;;5033734;28;20446;-75
2023/09/16 07:39:03;;;;;;;13.25;8.27;;;19.70;72.80;;;;;;5034748;28;20104;-75
2023/09/16 07:41:29;;;;;;;11.00;7.47;;;19.80;72.50;;;;;;5020658;28;20046;-75
2023/09/16 07:43:55;;;;;;;10.98;7.15;;;19.90;72.20;;;;;;5033593;28;20108;-77
2023/09/16 07:46:21;;;;;;;12.05;7.72;;;20.00;72.10;;;;;;5034141;28;20029;-79
2023/09/16 07:48:47;;;;;;;11.75;7.95;;;20.20;72.00;;;;;;5031888;28;20036;-77
2023/09/16 07:52:02;;;;;;;11.50;7.97;;;20.30;71.70;;;;;;5030145;28;20454;-77
2023/09/16 07:54:28;;;;;;;11.18;7.20;;;20.40;71.30;;;;;;5053590;28;20040;-78
2023/09/16 07:56:54;;;;;;;12.30;7.78;;;20.60;71.00;;;;;;5065007;28;20361;-77
2023/09/16 07:59:21;;;;;;;11.18;7.43;;;20.70;70.90;;;;;;5065950;28;20044;-78
2023/09/16 08:01:47;;;;;;;11.30;7.95;;;20.70;71.20;;;;;;5048145;28;20024;-77
2023/09/16 08:04:12;;;;;;;14.30;8.38;;;20.70;71.30;;;;;;5061575;28;20040;-77
2023/09/16 08:06:38;;;;;;;12.57;7.97;;;20.80;71.10;;;;;;5061390;28;20485;-78
2023/09/16 08:09:04;;;;;;;11.02;7.47;;;21.10;70.70;;;;;;5034736;28;20040;-78
2023/09/16 08:11:30;;;;;;;9.98;6.47;;;21.30;70.20;;;;;;5021649;28;20048;-79
2023/09/16 08:13:55;;;;;;;11.57;8.15;;;21.50;70.00;;;;;;5071395;28;20048;-80
2023/09/16 08:16:21;;;;;;;10.30;6.90;;;21.80;69.50;;;;;;5043082;28;20102;-79
2023/09/16 08:18:47;;;;;;;12.68;7.97;;;22.00;68.90;;;;;;5049717;28;20182;-79
2023/09/16 08:21:13;;;;;;;11.18;7.45;;;22.20;68.60;;;;;;5068208;28;20120;-81
2023/09/16 08:23:39;;;;;;;10.00;7.00;;;22.30;68.30;;;;;;5066744;28;20032;-79
2023/09/16 08:26:05;;;;;;;11.75;7.35;;;22.30;67.80;;;;;;5032471;28;20195;-79
2023/09/16 08:28:31;;;;;;;11.95;7.90;;;22.30;67.80;;;;;;5030299;28;20123;-80
2023/09/16 08:30:57;;;;;;;11.27;7.22;;;22.50;67.30;;;;;;5027465;28;20430;-79
2023/09/16 08:33:23;;;;;;;9.77;6.60;;;22.60;66.90;;;;;;5028756;28;20060;-79
2023/09/16 08:35:48;;;;;;;9.93;6.38;;;22.70;67.10;;;;;;5029257;28;20060;-80
2023/09/16 08:38:14;;;;;;;9.88;6.35;;;22.80;66.70;;;;;;5041810;28;21554;-78
2023/09/16 08:40:40;;;;;;;9.70;6.65;;;23.00;66.30;;;;;;5024714;28;20055;-79
2023/09/16 08:43:21;;;;;;;10.77;6.82;;;23.20;65.70;;;;;;5027340;28;20034;-79
2023/09/16 08:45:57;;;;;;;9.30;5.88;;;23.50;65.00;;;;;;5027846;28;20025;-79
2023/09/16 08:48:26;;;;;;;9.55;5.38;;;23.80;64.50;;;;;;5039865;28;20344;-79
2023/09/16 08:50:54;;;;;;;10.20;5.40;;;24.00;63.90;;;;;;5028190;28;20116;-79
2023/09/16 08:53:21;;;;;;;10.75;5.53;;;24.20;63.30;;;;;;5025376;28;20083;-79
2023/09/16 08:55:48;;;;;;;8.45;5.10;;;24.30;62.80;;;;;;5027805;28;20034;-79
2023/09/16 08:58:15;;;;;;;8.80;5.35;;;24.40;62.20;;;;;;5027859;28;20037;-79
2023/09/16 09:00:41;;;;;;;9.77;5.50;;;24.60;62.00;;;;;;5029040;28;20192;-79
2023/09/16 09:03:07;;;;;;;10.15;5.45;;;24.70;61.80;;;;;;5042071;28;20128;-79
2023/09/16 09:05:34;;;;;;;9.82;5.93;;;24.80;61.50;;;;;;5023931;28;20029;-78
2023/09/16 09:08:00;;;;;;;9.20;5.78;;;24.90;61.00;;;;;;5044911;28;20375;-78
2023/09/16 09:10:26;;;;;;;10.45;5.75;;;25.00;60.80;;;;;;5030093;28;20029;-78
2023/09/16 09:12:53;;;;;;;9.15;5.20;;;25.20;60.50;;;;;;5024569;28;20045;-79
2023/09/16 09:15:20;;;;;;;9.27;5.70;;;25.20;60.20;;;;;;5025198;28;20382;-77
2023/09/16 09:17:50;;;;;;;10.05;5.72;;;25.30;60.00;;;;;;5028860;28;20045;-77
2023/09/16 09:20:22;;;;;;;10.75;5.97;;;25.40;60.20;;;;;;5028504;28;20481;-78
2023/09/16 09:22:50;;;;;;;9.77;5.25;;;25.50;59.40;;;;;;5031549;28;20021;-77
2023/09/16 09:25:31;;;;;;;10.00;5.07;;;25.50;59.20;;;;;;5029684;28;20041;-78
2023/09/16 09:27:57;;;;;;;9.93;6.30;;;25.60;59.10;;;;;;5031826;28;20029;-78
2023/09/16 09:30:27;;;;;;;9.70;5.95;;;25.70;59.00;;;;;;5029614;28;20434;-78
2023/09/16 09:32:56;;;;;;;9.23;5.45;;;25.70;58.50;;;;;;5032927;28;20068;-77
2023/09/16 09:35:27;;;;;;;9.43;5.88;;;25.70;58.50;;;;;;5044881;28;20022;-78
2023/09/16 09:37:53;;;;;;;8.65;5.32;;;25.70;58.50;;;;;;5032636;28;20025;-78
2023/09/16 09:40:20;;;;;;;9.45;4.88;;;25.80;58.60;;;;;;5029389;28;20131;-77
2023/09/16 09:42:55;;;;;;;8.57;4.53;;;25.90;58.50;;;;;;5027380;28;20108;-78
2023/09/16 09:45:22;;;;;;;8.50;5.35;;;26.00;58.10;;;;;;5033550;28;20037;-77
2023/09/16 09:47:50;;;;;;;8.75;5.68;;;26.00;58.00;;;;;;5032452;28;20025;-78
2023/09/16 09:50:20;;;;;;;8.85;5.25;;;26.10;57.80;;;;;;5033309;28;20033;-77
2023/09/16 09:52:53;;;;;;;8.50;4.70;;;26.20;57.60;;;;;;5037645;28;20123;-76
2023/09/16 09:55:21;;;;;;;9.45;5.20;;;26.30;57.40;;;;;;5040515;28;20035;-76
2023/09/16 09:57:49;;;;;;;7.97;4.50;;;26.30;57.00;;;;;;5048995;28;20394;-76
2023/09/16 10:00:19;;;;;;;8.18;4.40;;;26.40;56.60;;;;;;5035699;28;20033;-76
2023/09/16 10:02:45;;;;;;;8.13;4.13;;;26.50;56.50;;;;;;5032667;28;20030;-77
2023/09/16 10:05:15;;;;;;;7.70;4.18;;;26.50;56.30;;;;;;5033137;28;20710;-78
2023/09/16 10:07:44;;;;;;;7.85;3.72;;;26.60;56.10;;;;;;5031333;28;20037;-77
2023/09/16 10:10:23;;;;;;;7.70;4.10;;;26.60;55.90;;;;;;5031944;28;20430;-75
2023/09/16 10:12:55;;;;;;;7.63;4.45;;;26.70;55.50;;;;;;5025435;28;20046;-74
2023/09/16 10:15:24;;;;;;;9.65;3.63;;;26.80;55.40;;;;;;5014943;28;20060;-75
2023/09/16 10:17:50;;;;;;;6.97;3.58;;;26.80;55.30;;;;;;5030084;28;20025;-75
2023/09/16 10:20:17;;;;;;;7.78;3.55;;;26.80;55.30;;;;;;5031354;28;20197;-76
2023/09/16 10:22:44;;;;;;;6.93;3.42;;;26.90;54.70;;;;;;5027847;28;20041;-75
2023/09/16 10:25:12;;;;;;;7.57;3.58;;;27.00;54.50;;;;;;5029746;28;20033;-76
2023/09/16 10:28:02;;;;;;;6.53;3.13;;;27.00;54.10;;;;;;5030114;28;20025;-76
2023/09/16 10:30:30;;;;;;;7.60;3.13;;;27.10;54.00;;;;;;5027797;28;20071;-77
2023/09/16 10:33:02;;;;;;;6.43;3.15;;;27.10;53.90;;;;;;5027075;28;20032;-75
2023/09/16 10:35:29;;;;;;;6.53;3.00;;;27.10;53.50;;;;;;5014685;28;20033;-76
2023/09/16 10:37:57;;;;;;;5.35;2.78;;;27.20;53.40;;;;;;5029073;28;20385;-71
2023/09/16 10:40:23;;;;;;;7.55;3.33;;;27.30;53.10;;;;;;5028660;28;20076;-77
2023/09/16 10:42:51;;;;;;;6.38;2.85;;;27.40;52.90;;;;;;5030035;28;20033;-79
2023/09/16 10:45:18;;;;;;;6.53;3.10;;;27.30;52.70;;;;;;5024939;28;20087;-76
2023/09/16 10:47:46;;;;;;;5.30;2.25;;;27.30;52.70;;;;;;5029236;28;20112;-76
2023/09/16 10:50:11;;;;;;;5.88;2.90;;;27.40;52.60;;;;;;5027052;28;20045;-75
2023/09/16 10:52:44;;;;;;;5.80;2.60;;;27.40;52.40;;;;;;5030312;28;20014;-78
2023/09/16 10:55:19;;;;;;;5.85;2.60;;;27.40;52.20;;;;;;5023902;28;20096;-77
2023/09/16 10:58:01;;;;;;;6.88;2.60;;;27.40;52.30;;;;;;5026478;28;20021;-77
2023/09/16 11:00:30;;;;;;;7.72;3.33;;;27.50;52.10;;;;;;5027719;28;20053;-78
2023/09/16 11:03:00;;;;;;;4.82;2.40;;;27.60;52.10;;;;;;5027176;28;20093;-78
2023/09/16 11:05:26;;;;;;;5.78;2.65;;;27.60;52.00;;;;;;5043551;28;20041;-78
2023/09/16 11:07:57;;;;;;;5.57;2.70;;;27.60;51.80;;;;;;5029014;28;20040;-78
2023/09/16 11:10:23;;;;;;;6.30;2.97;;;27.70;51.60;;;;;;5030305;28;20033;-77
2023/09/16 11:12:50;;;;;;;6.40;2.80;;;27.60;51.60;;;;;;5029830;28;20390;-77
2023/09/16 11:15:17;;;;;;;5.88;2.70;;;27.60;51.50;;;;;;5028039;28;20112;-77
2023/09/16 11:17:42;;;;;;;7.00;2.92;;;27.60;51.30;;;;;;5031249;28;20113;-77
2023/09/16 11:20:28;;;;;;;5.70;2.60;;;27.50;51.30;;;;;;5032038;28;20105;-77
2023/09/16 11:22:54;;;;;;;6.32;2.90;;;27.60;51.30;;;;;;5028245;28;20358;-77
2023/09/16 11:25:20;;;;;;;8.18;2.80;;;27.60;51.50;;;;;;5029021;28;20029;-77
2023/09/16 11:27:46;;;;;;;5.93;2.90;;;27.50;51.40;;;;;;5030002;28;20036;-77
2023/09/16 11:30:17;;;;;;;5.63;3.00;;;27.60;51.50;;;;;;5046498;28;20104;-78
2023/09/16 11:32:54;;;;;;;;;;;27.60;51.50;;;;;;5024252;28;20052;-79
2023/09/16 11:35:20;;;;;;;6.38;2.80;;;27.60;52.30;;;;;;5030558;28;19909;-79
2023/09/16 11:37:46;;;;;;;6.70;2.67;;;27.70;51.60;;;;;;5021834;28;20477;-76
2023/09/16 11:40:13;;;;;;;6.15;2.70;;;27.70;51.40;;;;;;5030030;28;20033;-77
2023/09/16 11:42:39;;;;;;;5.78;2.72;;;27.70;51.70;;;;;;5041687;28;20026;-78
2023/09/16 11:45:05;;;;;;;6.00;2.72;;;27.70;51.80;;;;;;5031493;28;20022;-78
2023/09/16 11:47:32;;;;;;;5.72;2.80;;;27.70;51.70;;;;;;5041783;28;20430;-77
2023/09/16 11:49:58;;;;;;;5.82;3.00;;;27.60;51.70;;;;;;5031613;28;20025;-78
2023/09/16 11:52:25;;;;;;;6.35;3.05;;;27.60;51.70;;;;;;5030534;28;20017;-77
2023/09/16 11:54:51;;;;;;;5.90;2.92;;;27.60;51.70;;;;;;5026331;28;20025;-79
2023/09/16 11:57:18;;;;;;;6.82;2.90;;;27.60;51.80;;;;;;5024346;28;20046;-80
2023/09/16 11:59:46;;;;;;;5.95;2.92;;;27.60;51.90;;;;;;5015425;28;20068;-81
2023/09/16 12:02:11;;;;;;;6.70;3.10;;;27.60;52.00;;;;;;5030551;28;20467;-80
2023/09/16 12:04:39;;;;;;;6.50;3.13;;;27.40;52.10;;;;;;5029872;28;20113;-80
2023/09/16 12:07:04;;;;;;;6.38;2.80;;;27.40;52.20;;;;;;5029448;28;20017;-79
2023/09/16 12:09:33;;;;;;;5.28;2.90;;;27.20;52.30;;;;;;5007213;28;20053;-80
2023/09/16 12:11:59;;;;;;;6.10;2.85;;;27.20;52.40;;;;;;5035837;28;20053;-80
2023/09/16 12:14:24;;;;;;;9.10;3.50;;;27.10;52.30;;;;;;5026964;28;20040;-79
2023/09/16 12:16:54;;;;;;;6.63;3.53;;;27.10;52.50;;;;;;5029426;28;20018;-78
2023/09/16 12:19:19;;;;;;;6.22;3.17;;;27.10;52.70;;;;;;5024970;28;20025;-79
2023/09/16 12:21:47;;;;;;;6.28;3.05;;;27.00;52.80;;;;;;5028141;28;20537;-79
2023/09/16 12:24:21;;;;;;;7.00;3.00;;;27.00;52.80;;;;;;5039401;28;20111;-79
2023/09/16 12:26:48;;;;;;;5.63;2.85;;;27.00;52.60;;;;;;5028145;28;20041;-79
2023/09/16 12:29:13;;;;;;;6.10;2.95;;;26.90;52.70;;;;;;5029323;28;20060;-79
2023/09/16 12:31:39;;;;;;;6.55;3.03;;;26.90;52.90;;;;;;5028281;28;20029;-78
2023/09/16 12:34:05;;;;;;;6.68;3.05;;;26.90;53.00;;;;;;5024609;28;20108;-79
2023/09/16 12:36:31;;;;;;;5.45;2.72;;;26.90;53.00;;;;;;5026740;28;20187;-78
2023/09/16 12:39:00;;;;;;;5.68;2.92;;;26.80;53.00;;;;;;5026790;28;20025;-80
2023/09/16 12:41:27;;;;;;;5.97;3.10;;;26.80;52.80;;;;;;5028567;28;20107;-80